sensor_id;sensor_type;location;lat;lon;timestamp;temperature;humidity
22139;DHT22;25815;52.582;13.408;2024-03-08T00:00:11;1.80;99.90
22139;DHT22;25815;52.582;13.408;2024-03-08T00:02:40;1.80;99.90
22139;DHT22;25815;52.582;13.408;2024-03-08T00:05:06;1.80;99.90
22139;DHT22;25815;52.582;13.408;2024-03-08T00:07:34;1.60;99.90
22139;DHT22;25815;52.582;13.408;2024-03-08T00:09:59;1.50;99.90
22139;DHT22;25815;52.582;13.408;2024-03-08T00:12:25;1.40;99.90
22139;DHT22;25815;52.582;13.408;2024-03-08T00:14:53;1.30;99.90
22139;DHT22;25815;52.582;13.408;2024-03-08T00:17:18;1.30;99.90
22139;DHT22;25815;52.582;13.408;2024-03-08T00:19:43;1.30;99.90
22139;DHT22;25815;52.582;13.408;2024-03-08T00:22:09;1.30;99.90
22139;DHT22;25815;52.582;13.408;2024-03-08T00:24:36;1.40;99.90
22139;DHT22;25815;52.582;13.408;2024-03-08T00:27:02;1.40;99.90
22139;DHT22;25815;52.582;13.408;2024-03-08T00:29:30;1.40;99.90
22139;DHT22;25815;52.582;13.408;2024-03-08T00:31:55;1.30;99.90
22139;DHT22;25815;52.582;13.408;2024-03-08T00:34:21;1.30;99.90
22139;DHT22;25815;52.582;13.408;2024-03-08T00:36:46;1.20;99.90
22139;DHT22;25815;52.582;13.408;2024-03-08T00:39:12;1.20;99.90
22139;DHT22;25815;52.582;13.408;2024-03-08T00:41:38;1.10;99.90
22139;DHT22;25815;52.582;13.408;2024-03-08T00:44:04;1.10;99.90
22139;DHT22;25815;52.582;13.408;2024-03-08T00:46:30;1.10;99.90
22139;DHT22;25815;52.582;13.408;2024-03-08T00:48:56;1.00;99.90
22139;DHT22;25815;52.582;13.408;2024-03-08T00:51:22;1.00;99.90
22139;DHT22;25815;52.582;13.408;2024-03-08T00:53:48;0.90;99.90
22139;DHT22;25815;52.582;13.408;2024-03-08T00:56:13;0.80;99.90
22139;DHT22;25815;52.582;13.408;2024-03-08T00:58:39;0.80;99.90
22139;DHT22;25815;52.582;13.408;2024-03-08T01:01:05;0.80;99.90
22139;DHT22;25815;52.582;13.408;2024-03-08T01:03:31;0.70;99.90
22139;DHT22;25815;52.582;13.408;2024-03-08T01:05:57;0.70;99.90
22139;DHT22;25815;52.582;13.408;2024-03-08T01:08:25;0.70;99.90
22139;DHT22;25815;52.582;13.408;2024-03-08T01:10:50;0.60;99.90
22139;DHT22;25815;52.582;13.408;2024-03-08T01:13:16;0.60;99.90
22139;DHT22;25815;52.582;13.408;2024-03-08T01:15:41;0.70;99.90
22139;DHT22;25815;52.582;13.408;2024-03-08T01:18:07;0.70;99.90
22139;DHT22;25815;52.582;13.408;2024-03-08T01:20:32;0.70;99.90
22139;DHT22;25815;52.582;13.408;2024-03-08T01:22:58;0.60;99.90
22139;DHT22;25815;52.582;13.408;2024-03-08T01:25:23;0.60;99.90
22139;DHT22;25815;52.582;13.408;2024-03-08T01:27:49;0.50;99.90
22139;DHT22;25815;52.582;13.408;2024-03-08T01:30:14;0.50;99.90
22139;DHT22;25815;52.582;13.408;2024-03-08T01:32:42;0.50;99.90
22139;DHT22;25815;52.582;13.408;2024-03-08T01:35:09;0.50;99.90
22139;DHT22;25815;52.582;13.408;2024-03-08T01:37:35;0.50;99.90
22139;DHT22;25815;52.582;13.408;2024-03-08T01:40:01;0.50;99.90
22139;DHT22;25815;52.582;13.408;2024-03-08T01:42:28;0.50;99.90
22139;DHT22;25815;52.582;13.408;2024-03-08T01:44:54;0.50;99.90
22139;DHT22;25815;52.582;13.408;2024-03-08T01:47:21;0.50;99.90
22139;DHT22;25815;52.582;13.408;2024-03-08T01:49:51;0.50;99.90
22139;DHT22;25815;52.582;13.408;2024-03-08T01:52:18;0.40;99.90
22139;DHT22;25815;52.582;13.408;2024-03-08T01:54:47;0.40;99.90
22139;DHT22;25815;52.582;13.408;2024-03-08T01:57:13;0.30;99.90
22139;DHT22;25815;52.582;13.408;2024-03-08T01:59:40;0.30;99.90
22139;DHT22;25815;52.582;13.408;2024-03-08T02:02:07;0.30;99.90
22139;DHT22;25815;52.582;13.408;2024-03-08T02:04:34;0.30;99.90
22139;DHT22;25815;52.582;13.408;2024-03-08T02:06:59;0.20;99.90
22139;DHT22;25815;52.582;13.408;2024-03-08T02:09:25;0.10;99.90
22139;DHT22;25815;52.582;13.408;2024-03-08T02:11:51;0.10;99.90
22139;DHT22;25815;52.582;13.408;2024-03-08T02:14:17;0.10;99.90
22139;DHT22;25815;52.582;13.408;2024-03-08T02:16:44;0.10;99.90
22139;DHT22;25815;52.582;13.408;2024-03-08T02:19:09;0.10;99.90
22139;DHT22;25815;52.582;13.408;2024-03-08T02:21:35;0.10;99.90
22139;DHT22;25815;52.582;13.408;2024-03-08T02:24:01;0.10;99.90
22139;DHT22;25815;52.582;13.408;2024-03-08T02:26:27;0.00;99.90
22139;DHT22;25815;52.582;13.408;2024-03-08T02:28:52;0.00;99.90
22139;DHT22;25815;52.582;13.408;2024-03-08T02:31:18;0.00;99.90
22139;DHT22;25815;52.582;13.408;2024-03-08T02:33:43;0.00;99.90
22139;DHT22;25815;52.582;13.408;2024-03-08T02:36:09;0.00;99.90
22139;DHT22;25815;52.582;13.408;2024-03-08T02:38:35;0.00;99.90
22139;DHT22;25815;52.582;13.408;2024-03-08T02:41:01;0.00;99.90
22139;DHT22;25815;52.582;13.408;2024-03-08T02:43:26;0.00;99.90
22139;DHT22;25815;52.582;13.408;2024-03-08T02:45:52;0.00;99.90
22139;DHT22;25815;52.582;13.408;2024-03-08T02:48:20;-0.10;99.90
22139;DHT22;25815;52.582;13.408;2024-03-08T02:50:47;-0.10;99.90
22139;DHT22;25815;52.582;13.408;2024-03-08T02:53:12;-0.10;99.90
22139;DHT22;25815;52.582;13.408;2024-03-08T02:55:41;-0.10;99.90
22139;DHT22;25815;52.582;13.408;2024-03-08T02:58:07;-0.10;99.90
22139;DHT22;25815;52.582;13.408;2024-03-08T03:00:37;-0.10;99.90
22139;DHT22;25815;52.582;13.408;2024-03-08T03:03:04;-0.20;99.90
22139;DHT22;25815;52.582;13.408;2024-03-08T03:05:29;-0.30;99.90
22139;DHT22;25815;52.582;13.408;2024-03-08T03:07:55;-0.30;99.90
22139;DHT22;25815;52.582;13.408;2024-03-08T03:10:21;-0.50;99.90
22139;DHT22;25815;52.582;13.408;2024-03-08T03:12:48;-0.50;99.90
22139;DHT22;25815;52.582;13.408;2024-03-08T03:15:17;-0.40;99.90
22139;DHT22;25815;52.582;13.408;2024-03-08T03:17:50;-0.40;99.90
22139;DHT22;25815;52.582;13.408;2024-03-08T03:20:19;-0.40;99.90
22139;DHT22;25815;52.582;13.408;2024-03-08T03:23:01;-0.40;99.90
22139;DHT22;25815;52.582;13.408;2024-03-08T03:25:28;-0.40;99.90
22139;DHT22;25815;52.582;13.408;2024-03-08T03:28:03;-0.40;99.90
22139;DHT22;25815;52.582;13.408;2024-03-08T03:30:29;-0.40;99.90
22139;DHT22;25815;52.582;13.408;2024-03-08T03:33:01;-0.40;99.90
22139;DHT22;25815;52.582;13.408;2024-03-08T03:35:28;-0.40;99.90
22139;DHT22;25815;52.582;13.408;2024-03-08T03:37:54;-0.40;99.90
22139;DHT22;25815;52.582;13.408;2024-03-08T03:40:32;-0.40;99.90
22139;DHT22;25815;52.582;13.408;2024-03-08T03:42:58;-0.30;99.90
22139;DHT22;25815;52.582;13.408;2024-03-08T03:45:24;-0.40;99.90
22139;DHT22;25815;52.582;13.408;2024-03-08T03:47:50;-0.40;99.90
22139;DHT22;25815;52.582;13.408;2024-03-08T03:50:20;-0.50;99.90
22139;DHT22;25815;52.582;13.408;2024-03-08T03:52:46;-0.50;99.90
22139;DHT22;25815;52.582;13.408;2024-03-08T03:55:12;-0.60;99.90
22139;DHT22;25815;52.582;13.408;2024-03-08T03:57:39;-0.60;99.90
22139;DHT22;25815;52.582;13.408;2024-03-08T04:00:05;-0.60;99.90
22139;DHT22;25815;52.582;13.408;2024-03-08T04:02:31;-0.60;99.90
22139;DHT22;25815;52.582;13.408;2024-03-08T04:04:57;-0.70;99.90
22139;DHT22;25815;52.582;13.408;2024-03-08T04:07:22;-0.80;99.90
22139;DHT22;25815;52.582;13.408;2024-03-08T04:09:48;-0.80;99.90
22139;DHT22;25815;52.582;13.408;2024-03-08T04:12:13;-0.70;99.90
22139;DHT22;25815;52.582;13.408;2024-03-08T04:14:42;-0.70;99.90
22139;DHT22;25815;52.582;13.408;2024-03-08T04:17:07;-0.80;99.90
22139;DHT22;25815;52.582;13.408;2024-03-08T04:19:34;-0.70;99.90
22139;DHT22;25815;52.582;13.408;2024-03-08T04:22:00;-0.70;99.90
22139;DHT22;25815;52.582;13.408;2024-03-08T04:24:26;-0.70;99.90
22139;DHT22;25815;52.582;13.408;2024-03-08T04:26:52;-0.70;99.90
22139;DHT22;25815;52.582;13.408;2024-03-08T04:29:18;-0.70;99.90
22139;DHT22;25815;52.582;13.408;2024-03-08T04:31:44;-0.70;99.90
22139;DHT22;25815;52.582;13.408;2024-03-08T04:34:10;-0.70;99.90
22139;DHT22;25815;52.582;13.408;2024-03-08T04:36:35;-0.70;99.90
22139;DHT22;25815;52.582;13.408;2024-03-08T04:39:01;-0.70;99.90
22139;DHT22;25815;52.582;13.408;2024-03-08T04:41:26;-0.80;99.90
22139;DHT22;25815;52.582;13.408;2024-03-08T04:43:52;-0.80;99.90
22139;DHT22;25815;52.582;13.408;2024-03-08T04:46:17;-0.90;99.90
22139;DHT22;25815;52.582;13.408;2024-03-08T04:48:43;-1.00;99.90
22139;DHT22;25815;52.582;13.408;2024-03-08T04:51:09;-1.10;99.90
22139;DHT22;25815;52.582;13.408;2024-03-08T04:53:35;-1.00;99.90
22139;DHT22;25815;52.582;13.408;2024-03-08T04:56:00;-1.00;99.90
22139;DHT22;25815;52.582;13.408;2024-03-08T04:58:32;-1.00;99.90
22139;DHT22;25815;52.582;13.408;2024-03-08T05:00:57;-0.90;99.90
22139;DHT22;25815;52.582;13.408;2024-03-08T05:03:23;-0.90;99.90
22139;DHT22;25815;52.582;13.408;2024-03-08T05:05:52;-0.90;99.90
22139;DHT22;25815;52.582;13.408;2024-03-08T05:08:17;-0.90;99.90
22139;DHT22;25815;52.582;13.408;2024-03-08T05:10:44;-0.90;99.90
22139;DHT22;25815;52.582;13.408;2024-03-08T05:13:09;-0.90;99.90
22139;DHT22;25815;52.582;13.408;2024-03-08T05:15:35;-0.80;99.90
22139;DHT22;25815;52.582;13.408;2024-03-08T05:18:01;-0.80;99.90
22139;DHT22;25815;52.582;13.408;2024-03-08T05:20:27;-0.80;99.90
22139;DHT22;25815;52.582;13.408;2024-03-08T05:22:52;-0.80;99.90
22139;DHT22;25815;52.582;13.408;2024-03-08T05:25:18;-0.80;99.90
22139;DHT22;25815;52.582;13.408;2024-03-08T05:27:43;-0.80;99.90
22139;DHT22;25815;52.582;13.408;2024-03-08T05:30:09;-0.90;99.90
22139;DHT22;25815;52.582;13.408;2024-03-08T05:32:41;-1.00;99.90
22139;DHT22;25815;52.582;13.408;2024-03-08T05:35:12;-1.00;99.90
22139;DHT22;25815;52.582;13.408;2024-03-08T05:37:40;-1.10;99.90
22139;DHT22;25815;52.582;13.408;2024-03-08T05:40:06;-1.10;99.90
22139;DHT22;25815;52.582;13.408;2024-03-08T05:42:35;-1.10;99.90
22139;DHT22;25815;52.582;13.408;2024-03-08T05:45:02;-1.10;99.90
22139;DHT22;25815;52.582;13.408;2024-03-08T05:47:28;-1.10;99.90
22139;DHT22;25815;52.582;13.408;2024-03-08T05:49:53;-1.00;99.90
22139;DHT22;25815;52.582;13.408;2024-03-08T05:52:19;-1.10;99.90
22139;DHT22;25815;52.582;13.408;2024-03-08T05:54:44;-1.00;99.90
22139;DHT22;25815;52.582;13.408;2024-03-08T05:57:11;-1.00;99.90
22139;DHT22;25815;52.582;13.408;2024-03-08T05:59:36;-1.10;99.90
22139;DHT22;25815;52.582;13.408;2024-03-08T06:02:02;-1.10;99.90
22139;DHT22;25815;52.582;13.408;2024-03-08T06:04:28;-1.00;99.90
22139;DHT22;25815;52.582;13.408;2024-03-08T06:06:54;-1.00;99.90
22139;DHT22;25815;52.582;13.408;2024-03-08T06:09:22;-0.90;99.90
22139;DHT22;25815;52.582;13.408;2024-03-08T06:11:49;-0.90;99.90
22139;DHT22;25815;52.582;13.408;2024-03-08T06:14:14;-0.80;99.90
22139;DHT22;25815;52.582;13.408;2024-03-08T06:16:46;-0.70;99.90
22139;DHT22;25815;52.582;13.408;2024-03-08T06:19:12;-0.60;99.90
22139;DHT22;25815;52.582;13.408;2024-03-08T06:21:38;-0.60;99.90
22139;DHT22;25815;52.582;13.408;2024-03-08T06:24:04;-0.50;99.90
22139;DHT22;25815;52.582;13.408;2024-03-08T06:26:30;-0.50;99.90
22139;DHT22;25815;52.582;13.408;2024-03-08T06:28:56;-0.40;99.90
22139;DHT22;25815;52.582;13.408;2024-03-08T06:31:22;-0.30;99.90
22139;DHT22;25815;52.582;13.408;2024-03-08T06:33:48;-0.20;99.90
22139;DHT22;25815;52.582;13.408;2024-03-08T06:36:19;-0.20;99.90
22139;DHT22;25815;52.582;13.408;2024-03-08T06:38:47;-0.10;99.90
22139;DHT22;25815;52.582;13.408;2024-03-08T06:41:12;0.00;99.90
22139;DHT22;25815;52.582;13.408;2024-03-08T06:43:44;0.00;99.90
22139;DHT22;25815;52.582;13.408;2024-03-08T06:46:10;0.10;99.90
22139;DHT22;25815;52.582;13.408;2024-03-08T06:48:39;0.20;99.90
22139;DHT22;25815;52.582;13.408;2024-03-08T06:51:05;0.20;99.90
22139;DHT22;25815;52.582;13.408;2024-03-08T06:53:31;0.30;99.90
22139;DHT22;25815;52.582;13.408;2024-03-08T06:56:01;0.30;99.90
22139;DHT22;25815;52.582;13.408;2024-03-08T06:58:27;0.30;99.90
22139;DHT22;25815;52.582;13.408;2024-03-08T07:00:53;0.40;99.90
22139;DHT22;25815;52.582;13.408;2024-03-08T07:03:19;0.40;99.90
22139;DHT22;25815;52.582;13.408;2024-03-08T07:05:44;0.50;99.90
22139;DHT22;25815;52.582;13.408;2024-03-08T07:08:10;0.50;99.90
22139;DHT22;25815;52.582;13.408;2024-03-08T07:10:35;0.60;99.90
22139;DHT22;25815;52.582;13.408;2024-03-08T07:13:03;0.70;99.90
22139;DHT22;25815;52.582;13.408;2024-03-08T07:15:28;0.70;99.90
22139;DHT22;25815;52.582;13.408;2024-03-08T07:17:54;0.80;99.90
22139;DHT22;25815;52.582;13.408;2024-03-08T07:20:20;0.80;99.90
22139;DHT22;25815;52.582;13.408;2024-03-08T07:22:46;0.90;99.90
22139;DHT22;25815;52.582;13.408;2024-03-08T07:25:18;1.00;99.90
22139;DHT22;25815;52.582;13.408;2024-03-08T07:27:48;1.00;99.90
22139;DHT22;25815;52.582;13.408;2024-03-08T07:30:14;1.10;99.90
22139;DHT22;25815;52.582;13.408;2024-03-08T07:32:59;1.10;99.90
22139;DHT22;25815;52.582;13.408;2024-03-08T07:35:25;1.20;99.90
22139;DHT22;25815;52.582;13.408;2024-03-08T07:37:51;1.30;99.90
22139;DHT22;25815;52.582;13.408;2024-03-08T07:40:18;1.30;99.90
22139;DHT22;25815;52.582;13.408;2024-03-08T07:42:43;1.40;99.90
22139;DHT22;25815;52.582;13.408;2024-03-08T07:45:09;1.50;99.90
22139;DHT22;25815;52.582;13.408;2024-03-08T07:47:35;1.60;99.90
22139;DHT22;25815;52.582;13.408;2024-03-08T07:50:01;1.70;99.90
22139;DHT22;25815;52.582;13.408;2024-03-08T07:52:27;1.80;99.90
22139;DHT22;25815;52.582;13.408;2024-03-08T07:54:53;1.90;99.90
22139;DHT22;25815;52.582;13.408;2024-03-08T07:57:19;2.00;99.90
22139;DHT22;25815;52.582;13.408;2024-03-08T07:59:45;2.10;99.90
22139;DHT22;25815;52.582;13.408;2024-03-08T08:02:11;2.20;99.90
22139;DHT22;25815;52.582;13.408;2024-03-08T08:04:36;2.20;99.90
22139;DHT22;25815;52.582;13.408;2024-03-08T08:07:04;2.30;99.90
22139;DHT22;25815;52.582;13.408;2024-03-08T08:09:29;2.40;99.90
22139;DHT22;25815;52.582;13.408;2024-03-08T08:12:00;2.50;99.90
22139;DHT22;25815;52.582;13.408;2024-03-08T08:14:27;2.60;99.90
22139;DHT22;25815;52.582;13.408;2024-03-08T08:16:52;2.70;99.90
22139;DHT22;25815;52.582;13.408;2024-03-08T08:19:18;2.70;99.90
22139;DHT22;25815;52.582;13.408;2024-03-08T08:21:44;2.80;99.90
22139;DHT22;25815;52.582;13.408;2024-03-08T08:24:09;2.90;99.90
22139;DHT22;25815;52.582;13.408;2024-03-08T08:26:36;3.00;99.90
22139;DHT22;25815;52.582;13.408;2024-03-08T08:29:01;3.00;99.90
22139;DHT22;25815;52.582;13.408;2024-03-08T08:31:27;3.10;99.90
22139;DHT22;25815;52.582;13.408;2024-03-08T08:33:53;3.20;99.90
22139;DHT22;25815;52.582;13.408;2024-03-08T08:36:25;3.30;99.90
22139;DHT22;25815;52.582;13.408;2024-03-08T08:38:51;3.40;99.90
22139;DHT22;25815;52.582;13.408;2024-03-08T08:41:19;3.50;99.90
22139;DHT22;25815;52.582;13.408;2024-03-08T08:43:45;3.60;99.90
22139;DHT22;25815;52.582;13.408;2024-03-08T08:46:10;3.60;99.90
22139;DHT22;25815;52.582;13.408;2024-03-08T08:48:39;3.70;99.90
22139;DHT22;25815;52.582;13.408;2024-03-08T08:51:13;3.80;99.90
22139;DHT22;25815;52.582;13.408;2024-03-08T08:53:40;3.90;99.90
22139;DHT22;25815;52.582;13.408;2024-03-08T08:56:08;4.00;99.90
22139;DHT22;25815;52.582;13.408;2024-03-08T08:58:34;4.10;99.90
22139;DHT22;25815;52.582;13.408;2024-03-08T09:00:59;4.10;99.90
22139;DHT22;25815;52.582;13.408;2024-03-08T09:03:25;4.20;99.90
22139;DHT22;25815;52.582;13.408;2024-03-08T09:05:52;4.30;99.90
22139;DHT22;25815;52.582;13.408;2024-03-08T09:08:18;4.40;99.90
22139;DHT22;25815;52.582;13.408;2024-03-08T09:10:43;4.40;99.90
22139;DHT22;25815;52.582;13.408;2024-03-08T09:13:09;4.50;99.90
22139;DHT22;25815;52.582;13.408;2024-03-08T09:15:36;4.50;99.90
22139;DHT22;25815;52.582;13.408;2024-03-08T09:18:06;4.60;99.90
22139;DHT22;25815;52.582;13.408;2024-03-08T09:20:31;4.70;99.90
22139;DHT22;25815;52.582;13.408;2024-03-08T09:22:57;4.80;99.90
22139;DHT22;25815;52.582;13.408;2024-03-08T09:25:23;4.80;99.90
22139;DHT22;25815;52.582;13.408;2024-03-08T09:27:48;4.90;99.90
22139;DHT22;25815;52.582;13.408;2024-03-08T09:30:15;4.90;99.90
22139;DHT22;25815;52.582;13.408;2024-03-08T09:32:40;4.90;99.90
22139;DHT22;25815;52.582;13.408;2024-03-08T09:35:06;5.00;99.90
22139;DHT22;25815;52.582;13.408;2024-03-08T09:37:35;5.00;99.90
22139;DHT22;25815;52.582;13.408;2024-03-08T09:40:01;5.10;99.90
22139;DHT22;25815;52.582;13.408;2024-03-08T09:42:35;5.10;99.90
22139;DHT22;25815;52.582;13.408;2024-03-08T09:45:08;5.20;99.90
22139;DHT22;25815;52.582;13.408;2024-03-08T09:47:38;5.20;99.90
22139;DHT22;25815;52.582;13.408;2024-03-08T09:50:06;5.30;99.90
22139;DHT22;25815;52.582;13.408;2024-03-08T09:52:35;5.30;99.90
22139;DHT22;25815;52.582;13.408;2024-03-08T09:55:01;5.40;99.90
22139;DHT22;25815;52.582;13.408;2024-03-08T09:57:27;5.40;99.90
22139;DHT22;25815;52.582;13.408;2024-03-08T09:59:52;5.50;99.90
22139;DHT22;25815;52.582;13.408;2024-03-08T10:02:21;5.50;99.90
22139;DHT22;25815;52.582;13.408;2024-03-08T10:04:46;5.60;99.90
22139;DHT22;25815;52.582;13.408;2024-03-08T10:07:12;5.60;99.90
22139;DHT22;25815;52.582;13.408;2024-03-08T10:09:38;5.70;99.90
22139;DHT22;25815;52.582;13.408;2024-03-08T10:12:05;5.70;99.90
22139;DHT22;25815;52.582;13.408;2024-03-08T10:14:30;5.80;99.90
22139;DHT22;25815;52.582;13.408;2024-03-08T10:16:57;5.80;99.90
22139;DHT22;25815;52.582;13.408;2024-03-08T10:19:27;5.80;99.90
22139;DHT22;25815;52.582;13.408;2024-03-08T10:21:55;5.90;99.90
22139;DHT22;25815;52.582;13.408;2024-03-08T10:24:23;6.10;99.90
22139;DHT22;25815;52.582;13.408;2024-03-08T10:27:03;6.50;99.90
22139;DHT22;25815;52.582;13.408;2024-03-08T10:29:31;6.80;99.90
22139;DHT22;25815;52.582;13.408;2024-03-08T10:31:56;7.00;99.90
22139;DHT22;25815;52.582;13.408;2024-03-08T10:34:23;7.30;99.90
22139;DHT22;25815;52.582;13.408;2024-03-08T10:36:50;7.60;99.90
22139;DHT22;25815;52.582;13.408;2024-03-08T10:39:23;7.80;99.90
22139;DHT22;25815;52.582;13.408;2024-03-08T10:41:53;8.00;99.90
22139;DHT22;25815;52.582;13.408;2024-03-08T10:47:00;8.50;99.90
22139;DHT22;25815;52.582;13.408;2024-03-08T10:49:55;8.60;99.90
22139;DHT22;25815;52.582;13.408;2024-03-08T10:52:29;8.60;99.90
22139;DHT22;25815;52.582;13.408;2024-03-08T10:54:54;8.80;99.90
22139;DHT22;25815;52.582;13.408;2024-03-08T10:57:22;8.70;99.90
22139;DHT22;25815;52.582;13.408;2024-03-08T10:59:49;9.00;99.90
22139;DHT22;25815;52.582;13.408;2024-03-08T11:02:17;9.00;99.90
22139;DHT22;25815;52.582;13.408;2024-03-08T11:04:50;9.10;99.90
22139;DHT22;25815;52.582;13.408;2024-03-08T11:07:17;9.10;99.90
22139;DHT22;25815;52.582;13.408;2024-03-08T11:09:44;9.20;99.90
22139;DHT22;25815;52.582;13.408;2024-03-08T11:12:29;9.20;99.90
22139;DHT22;25815;52.582;13.408;2024-03-08T11:15:02;9.10;99.90
22139;DHT22;25815;52.582;13.408;2024-03-08T11:19:59;9.10;99.90
22139;DHT22;25815;52.582;13.408;2024-03-08T11:22:33;9.10;99.90
22139;DHT22;25815;52.582;13.408;2024-03-08T11:25:02;9.20;99.90
22139;DHT22;25815;52.582;13.408;2024-03-08T11:27:31;9.50;99.90
22139;DHT22;25815;52.582;13.408;2024-03-08T11:30:08;9.70;99.90
22139;DHT22;25815;52.582;13.408;2024-03-08T11:32:38;9.90;99.90
22139;DHT22;25815;52.582;13.408;2024-03-08T11:35:08;10.00;99.90
22139;DHT22;25815;52.582;13.408;2024-03-08T11:37:44;10.30;99.90
22139;DHT22;25815;52.582;13.408;2024-03-08T11:40:13;10.20;99.90
22139;DHT22;25815;52.582;13.408;2024-03-08T11:42:48;10.10;99.90
22139;DHT22;25815;52.582;13.408;2024-03-08T11:45:18;10.00;99.90
22139;DHT22;25815;52.582;13.408;2024-03-08T11:47:46;10.00;99.90
22139;DHT22;25815;52.582;13.408;2024-03-08T11:50:13;10.10;99.90
22139;DHT22;25815;52.582;13.408;2024-03-08T11:52:38;10.50;99.90
22139;DHT22;25815;52.582;13.408;2024-03-08T11:55:05;10.50;99.90
22139;DHT22;25815;52.582;13.408;2024-03-08T11:57:31;10.60;99.90
22139;DHT22;25815;52.582;13.408;2024-03-08T11:59:58;10.80;99.90
22139;DHT22;25815;52.582;13.408;2024-03-08T12:02:31;10.90;99.90
22139;DHT22;25815;52.582;13.408;2024-03-08T12:04:57;10.80;99.90
22139;DHT22;25815;52.582;13.408;2024-03-08T12:07:25;10.70;99.90
22139;DHT22;25815;52.582;13.408;2024-03-08T12:10:16;10.60;99.90
22139;DHT22;25815;52.582;13.408;2024-03-08T12:12:51;10.90;99.90
22139;DHT22;25815;52.582;13.408;2024-03-08T12:15:18;11.00;99.90
22139;DHT22;25815;52.582;13.408;2024-03-08T12:17:45;11.10;99.90
22139;DHT22;25815;52.582;13.408;2024-03-08T12:20:19;11.20;99.90
22139;DHT22;25815;52.582;13.408;2024-03-08T12:22:47;11.20;99.90
22139;DHT22;25815;52.582;13.408;2024-03-08T12:25:14;11.20;99.90
22139;DHT22;25815;52.582;13.408;2024-03-08T12:27:40;11.20;99.90
22139;DHT22;25815;52.582;13.408;2024-03-08T12:30:20;11.30;99.90
22139;DHT22;25815;52.582;13.408;2024-03-08T12:32:52;11.30;99.90
22139;DHT22;25815;52.582;13.408;2024-03-08T12:35:22;11.30;99.90
22139;DHT22;25815;52.582;13.408;2024-03-08T12:37:53;11.20;99.90
22139;DHT22;25815;52.582;13.408;2024-03-08T12:40:21;11.30;99.90
22139;DHT22;25815;52.582;13.408;2024-03-08T12:42:50;11.20;99.90
22139;DHT22;25815;52.582;13.408;2024-03-08T12:45:16;11.20;99.90
22139;DHT22;25815;52.582;13.408;2024-03-08T12:47:42;11.30;99.90
22139;DHT22;25815;52.582;13.408;2024-03-08T12:50:09;11.30;99.90
22139;DHT22;25815;52.582;13.408;2024-03-08T12:52:35;11.40;99.90
22139;DHT22;25815;52.582;13.408;2024-03-08T12:55:00;11.50;99.90
22139;DHT22;25815;52.582;13.408;2024-03-08T12:57:29;11.70;99.90
22139;DHT22;25815;52.582;13.408;2024-03-08T12:59:55;11.80;99.90
22139;DHT22;25815;52.582;13.408;2024-03-08T13:02:20;11.90;99.90
22139;DHT22;25815;52.582;13.408;2024-03-08T13:04:46;12.00;99.90
22139;DHT22;25815;52.582;13.408;2024-03-08T13:07:21;12.20;99.90
22139;DHT22;25815;52.582;13.408;2024-03-08T13:09:46;12.30;99.90
22139;DHT22;25815;52.582;13.408;2024-03-08T13:12:12;12.40;99.90
22139;DHT22;25815;52.582;13.408;2024-03-08T13:14:37;12.40;99.90
22139;DHT22;25815;52.582;13.408;2024-03-08T13:17:06;12.50;99.90
22139;DHT22;25815;52.582;13.408;2024-03-08T13:19:36;12.50;99.90
22139;DHT22;25815;52.582;13.408;2024-03-08T13:22:01;12.60;99.90
22139;DHT22;25815;52.582;13.408;2024-03-08T13:24:30;12.80;99.90
22139;DHT22;25815;52.582;13.408;2024-03-08T13:26:55;13.00;99.90
22139;DHT22;25815;52.582;13.408;2024-03-08T13:29:21;13.20;99.90
22139;DHT22;25815;52.582;13.408;2024-03-08T13:31:46;13.30;99.90
22139;DHT22;25815;52.582;13.408;2024-03-08T13:34:17;13.40;99.90
22139;DHT22;25815;52.582;13.408;2024-03-08T13:36:43;13.50;99.90
22139;DHT22;25815;52.582;13.408;2024-03-08T13:39:09;13.70;99.90
22139;DHT22;25815;52.582;13.408;2024-03-08T13:41:41;13.70;99.90
22139;DHT22;25815;52.582;13.408;2024-03-08T13:44:07;13.70;99.90
22139;DHT22;25815;52.582;13.408;2024-03-08T13:46:33;13.80;99.90
22139;DHT22;25815;52.582;13.408;2024-03-08T13:49:04;13.90;99.90
22139;DHT22;25815;52.582;13.408;2024-03-08T13:51:31;14.10;99.90
22139;DHT22;25815;52.582;13.408;2024-03-08T13:53:57;14.10;99.90
22139;DHT22;25815;52.582;13.408;2024-03-08T13:56:23;14.10;99.90
22139;DHT22;25815;52.582;13.408;2024-03-08T13:58:48;14.00;99.90
22139;DHT22;25815;52.582;13.408;2024-03-08T14:01:14;13.90;99.90
22139;DHT22;25815;52.582;13.408;2024-03-08T14:03:39;13.80;99.90
22139;DHT22;25815;52.582;13.408;2024-03-08T14:06:08;13.90;99.90
22139;DHT22;25815;52.582;13.408;2024-03-08T14:08:35;13.80;99.90
22139;DHT22;25815;52.582;13.408;2024-03-08T14:11:04;13.90;99.90
22139;DHT22;25815;52.582;13.408;2024-03-08T14:13:43;14.10;99.90
22139;DHT22;25815;52.582;13.408;2024-03-08T14:16:12;14.10;99.90
22139;DHT22;25815;52.582;13.408;2024-03-08T14:18:38;14.20;99.90
22139;DHT22;25815;52.582;13.408;2024-03-08T14:21:04;14.30;99.90
22139;DHT22;25815;52.582;13.408;2024-03-08T14:23:30;14.20;99.90
22139;DHT22;25815;52.582;13.408;2024-03-08T14:25:56;14.40;99.90
22139;DHT22;25815;52.582;13.408;2024-03-08T14:28:25;14.60;99.90
22139;DHT22;25815;52.582;13.408;2024-03-08T14:30:52;14.60;99.90
22139;DHT22;25815;52.582;13.408;2024-03-08T14:33:18;14.60;99.90
22139;DHT22;25815;52.582;13.408;2024-03-08T14:35:44;14.30;99.90
22139;DHT22;25815;52.582;13.408;2024-03-08T14:38:11;13.90;99.90
22139;DHT22;25815;52.582;13.408;2024-03-08T14:40:38;13.40;99.90
22139;DHT22;25815;52.582;13.408;2024-03-08T14:43:04;13.20;99.90
22139;DHT22;25815;52.582;13.408;2024-03-08T14:45:32;12.90;99.90
22139;DHT22;25815;52.582;13.408;2024-03-08T14:47:57;12.60;99.90
22139;DHT22;25815;52.582;13.408;2024-03-08T14:50:24;12.40;99.90
22139;DHT22;25815;52.582;13.408;2024-03-08T14:52:51;12.30;99.90
22139;DHT22;25815;52.582;13.408;2024-03-08T14:55:21;12.00;99.90
22139;DHT22;25815;52.582;13.408;2024-03-08T14:57:50;11.90;99.90
22139;DHT22;25815;52.582;13.408;2024-03-08T15:00:18;11.80;99.90
22139;DHT22;25815;52.582;13.408;2024-03-08T15:02:55;11.60;99.90
22139;DHT22;25815;52.582;13.408;2024-03-08T15:05:22;11.40;99.90
22139;DHT22;25815;52.582;13.408;2024-03-08T15:07:52;11.20;99.90
22139;DHT22;25815;52.582;13.408;2024-03-08T15:10:17;10.80;99.90
22139;DHT22;25815;52.582;13.408;2024-03-08T15:12:46;10.80;99.90
22139;DHT22;25815;52.582;13.408;2024-03-08T15:15:14;10.70;99.90
22139;DHT22;25815;52.582;13.408;2024-03-08T15:17:43;10.50;99.90
22139;DHT22;25815;52.582;13.408;2024-03-08T15:20:15;10.40;99.90
22139;DHT22;25815;52.582;13.408;2024-03-08T15:22:47;10.40;99.90
22139;DHT22;25815;52.582;13.408;2024-03-08T15:25:12;10.40;99.90
22139;DHT22;25815;52.582;13.408;2024-03-08T15:27:48;10.40;99.90